sensor_id;sensor_type;location;lat;lon;timestamp;pressure;altitude;pressure_sealevel;temperature;humidity
48792;BME280;34587;48.816;9.420;2022-12-07T00:01:09;98875.56;;;10.62;73.38
48792;BME280;34587;48.816;9.420;2022-12-07T00:03:35;98864.34;;;10.62;73.83
48792;BME280;34587;48.816;9.420;2022-12-07T00:06:02;98869.53;;;10.62;74.00
48792;BME280;34587;48.816;9.420;2022-12-07T00:08:28;98874.72;;;10.62;73.41
48792;BME280;34587;48.816;9.420;2022-12-07T00:10:54;98872.16;;;10.60;73.80
48792;BME280;34587;48.816;9.420;2022-12-07T00:13:20;98873.00;;;10.61;73.95
48792;BME280;34587;48.816;9.420;2022-12-07T00:15:45;98866.13;;;10.60;74.00
48792;BME280;34587;48.816;9.420;2022-12-07T00:18:10;98873.00;;;10.61;74.05
48792;BME280;34587;48.816;9.420;2022-12-07T00:20:36;98872.13;;;10.62;74.09
48792;BME280;34587;48.816;9.420;2022-12-07T00:23:01;98875.63;;;10.59;74.13
48792;BME280;34587;48.816;9.420;2022-12-07T00:25:27;98862.59;;;10.64;73.76
48792;BME280;34587;48.816;9.420;2022-12-07T00:27:53;98862.50;;;10.68;73.63
48792;BME280;34587;48.816;9.420;2022-12-07T00:30:20;98859.00;;;10.71;73.10
48792;BME280;34587;48.816;9.420;2022-12-07T00:32:46;98858.13;;;10.73;73.06
48792;BME280;34587;48.816;9.420;2022-12-07T00:35:11;98860.66;;;10.75;72.51
48792;BME280;34587;48.816;9.420;2022-12-07T00:37:36;98866.69;;;10.75;72.51
48792;BME280;34587;48.816;9.420;2022-12-07T00:40:02;98857.19;;;10.76;72.28
48792;BME280;34587;48.816;9.420;2022-12-07T00:42:27;98864.16;;;10.74;72.17
48792;BME280;34587;48.816;9.420;2022-12-07T00:44:52;98860.66;;;10.75;72.40
48792;BME280;34587;48.816;9.420;2022-12-07T00:47:18;98854.63;;;10.74;72.22
48792;BME280;34587;48.816;9.420;2022-12-07T00:49:43;98860.66;;;10.75;72.11
48792;BME280;34587;48.816;9.420;2022-12-07T00:52:08;98858.97;;;10.74;72.35
48792;BME280;34587;48.816;9.420;2022-12-07T00:54:33;98866.00;;;10.66;72.64
48792;BME280;34587;48.816;9.420;2022-12-07T00:56:59;98860.88;;;10.63;72.89
48792;BME280;34587;48.816;9.420;2022-12-07T00:59:24;98857.47;;;10.61;72.99
48792;BME280;34587;48.816;9.420;2022-12-07T05:16:54;98791.94;;;10.52;74.00
48792;BME280;34587;48.816;9.420;2022-12-07T05:19:20;98792.81;;;10.54;74.08
48792;BME280;34587;48.816;9.420;2022-12-07T05:21:45;98808.34;;;10.53;73.82
48792;BME280;34587;48.816;9.420;2022-12-07T05:24:13;98812.69;;;10.52;74.03
48792;BME280;34587;48.816;9.420;2022-12-07T05:26:38;98804.09;;;10.50;74.16
48792;BME280;34587;48.816;9.420;2022-12-07T05:29:04;98801.50;;;10.50;74.13
48792;BME280;34587;48.816;9.420;2022-12-07T05:31:29;98809.28;;;10.50;73.93
48792;BME280;34587;48.816;9.420;2022-12-07T05:33:55;98804.94;;;10.51;73.94
48792;BME280;34587;48.816;9.420;2022-12-07T05:36:21;98803.16;;;10.53;74.03
48792;BME280;34587;48.816;9.420;2022-12-07T05:38:46;98800.63;;;10.51;73.99
48792;BME280;34587;48.816;9.420;2022-12-07T05:41:15;98800.56;;;10.54;73.96
48792;BME280;34587;48.816;9.420;2022-12-07T05:43:59;98810.03;;;10.55;73.86
48792;BME280;34587;48.816;9.420;2022-12-07T05:46:24;98819.53;;;10.57;73.92
48792;BME280;34587;48.816;9.420;2022-12-07T05:48:50;98814.34;;;10.57;73.87
48792;BME280;34587;48.816;9.420;2022-12-07T05:51:16;98821.31;;;10.54;74.17
48792;BME280;34587;48.816;9.420;2022-12-07T05:53:41;98823.91;;;10.53;74.08
48792;BME280;34587;48.816;9.420;2022-12-07T05:56:06;98821.31;;;10.53;74.18
48792;BME280;34587;48.816;9.420;2022-12-07T05:58:31;98820.44;;;10.52;74.00
48792;BME280;34587;48.816;9.420;2022-12-07T06:01:15;98817.88;;;10.52;73.92
48792;BME280;34587;48.816;9.420;2022-12-07T06:03:41;98825.66;;;10.51;73.84
48792;BME280;34587;48.816;9.420;2022-12-07T06:06:06;98824.81;;;10.50;74.23
48792;BME280;34587;48.816;9.420;2022-12-07T06:08:31;98819.63;;;10.50;73.91
48792;BME280;34587;48.816;9.420;2022-12-07T06:10:57;98825.66;;;10.51;74.10
48792;BME280;34587;48.816;9.420;2022-12-07T06:13:40;98831.69;;;10.51;73.96
48792;BME280;34587;48.816;9.420;2022-12-07T06:16:06;98826.53;;;10.51;73.87
48792;BME280;34587;48.816;9.420;2022-12-07T06:18:32;98827.41;;;10.50;74.44
48792;BME280;34587;48.816;9.420;2022-12-07T06:20:57;98830.88;;;10.49;73.99
48792;BME280;34587;48.816;9.420;2022-12-07T06:23:23;98829.16;;;10.50;73.96
48792;BME280;34587;48.816;9.420;2022-12-07T06:25:48;98828.28;;;10.49;74.12
48792;BME280;34587;48.816;9.420;2022-12-07T06:28:13;98822.22;;;10.50;74.22
48792;BME280;34587;48.816;9.420;2022-12-07T06:30:39;98832.59;;;10.50;74.48
48792;BME280;34587;48.816;9.420;2022-12-07T06:33:04;98830.00;;;10.50;74.13
48792;BME280;34587;48.816;9.420;2022-12-07T06:35:29;98826.56;;;10.50;74.34
48792;BME280;34587;48.816;9.420;2022-12-07T06:37:57;98823.97;;;10.50;74.25
48792;BME280;34587;48.816;9.420;2022-12-07T06:40:22;98823.13;;;10.49;74.51
48792;BME280;34587;48.816;9.420;2022-12-07T06:42:47;98819.63;;;10.50;74.23
48792;BME280;34587;48.816;9.420;2022-12-07T06:45:12;98829.13;;;10.51;74.08
48792;BME280;34587;48.816;9.420;2022-12-07T06:47:38;98834.25;;;10.53;74.21
48792;BME280;34587;48.816;9.420;2022-12-07T06:50:03;98844.63;;;10.53;74.55
48792;BME280;34587;48.816;9.420;2022-12-07T06:52:30;98833.41;;;10.52;74.46
48792;BME280;34587;48.816;9.420;2022-12-07T06:54:55;98834.28;;;10.51;73.89
48792;BME280;34587;48.816;9.420;2022-12-07T06:57:20;98842.06;;;10.51;74.11
48792;BME280;34587;48.816;9.420;2022-12-07T06:59:45;98836.88;;;10.51;74.08
48792;BME280;34587;48.816;9.420;2022-12-07T07:02:11;98840.38;;;10.50;74.24
48792;BME280;34587;48.816;9.420;2022-12-07T07:04:36;98837.78;;;10.50;74.19
48792;BME280;34587;48.816;9.420;2022-12-07T07:07:01;98838.66;;;10.49;74.35
48792;BME280;34587;48.816;9.420;2022-12-07T07:09:27;98836.91;;;10.50;73.74
48792;BME280;34587;48.816;9.420;2022-12-07T07:11:52;98844.69;;;10.50;74.26
48792;BME280;34587;48.816;9.420;2022-12-07T07:14:17;98841.25;;;10.49;74.00
48792;BME280;34587;48.816;9.420;2022-12-07T07:16:44;98842.94;;;10.49;74.02
48792;BME280;34587;48.816;9.420;2022-12-07T07:19:09;98839.50;;;10.48;74.50
48792;BME280;34587;48.816;9.420;2022-12-07T07:21:36;98843.84;;;10.49;73.98
48792;BME280;34587;48.816;9.420;2022-12-07T07:24:02;98854.19;;;10.49;74.40
48792;BME280;34587;48.816;9.420;2022-12-07T07:26:27;98849.88;;;10.48;74.22
48792;BME280;34587;48.816;9.420;2022-12-07T07:28:52;98858.53;;;10.47;74.29
48792;BME280;34587;48.816;9.420;2022-12-07T07:31:18;98862.81;;;10.48;74.44
48792;BME280;34587;48.816;9.420;2022-12-07T07:33:45;98849.88;;;10.48;74.36
48792;BME280;34587;48.816;9.420;2022-12-07T07:36:11;98856.78;;;10.48;74.37
48792;BME280;34587;48.816;9.420;2022-12-07T07:38:36;98860.25;;;10.48;74.42
48792;BME280;34587;48.816;9.420;2022-12-07T07:41:02;98862.81;;;10.48;74.26
48792;BME280;34587;48.816;9.420;2022-12-07T07:43:27;98860.25;;;10.48;73.97
48792;BME280;34587;48.816;9.420;2022-12-07T07:45:53;98862.81;;;10.48;74.10
48792;BME280;34587;48.816;9.420;2022-12-07T07:48:18;98874.03;;;10.49;74.10
48792;BME280;34587;48.816;9.420;2022-12-07T07:50:43;98864.56;;;10.49;74.36
48792;BME280;34587;48.816;9.420;2022-12-07T07:53:08;98862.81;;;10.48;74.26
48792;BME280;34587;48.816;9.420;2022-12-07T07:55:34;98861.97;;;10.49;74.07
48792;BME280;34587;48.816;9.420;2022-12-07T07:57:59;98862.81;;;10.48;74.33
48792;BME280;34587;48.816;9.420;2022-12-07T08:00:24;98869.75;;;10.49;74.42
48792;BME280;34587;48.816;9.420;2022-12-07T08:02:50;98858.50;;;10.49;74.31
48792;BME280;34587;48.816;9.420;2022-12-07T08:05:15;98862.81;;;10.48;74.44
48792;BME280;34587;48.816;9.420;2022-12-07T08:07:41;98874.03;;;10.49;74.12
48792;BME280;34587;48.816;9.420;2022-12-07T08:10:08;98866.28;;;10.49;74.25
48792;BME280;34587;48.816;9.420;2022-12-07T08:12:39;98873.19;;;10.48;74.42
48792;BME280;34587;48.816;9.420;2022-12-07T08:15:26;98868.00;;;10.48;74.38
48792;BME280;34587;48.816;9.420;2022-12-07T08:17:52;98874.94;;;10.49;74.11
48792;BME280;34587;48.816;9.420;2022-12-07T08:20:17;98876.63;;;10.49;74.28
48792;BME280;34587;48.816;9.420;2022-12-07T08:22:42;98880.09;;;10.49;74.09
48792;BME280;34587;48.816;9.420;2022-12-07T08:25:08;98880.97;;;10.48;74.45
48792;BME280;34587;48.816;9.420;2022-12-07T08:27:33;98873.19;;;10.48;74.26
48792;BME280;34587;48.816;9.420;2022-12-07T08:29:58;98878.38;;;10.48;74.19
48792;BME280;34587;48.816;9.420;2022-12-07T08:32:23;98883.56;;;10.48;74.18
48792;BME280;34587;48.816;9.420;2022-12-07T08:34:49;98880.97;;;10.48;74.08
48792;BME280;34587;48.816;9.420;2022-12-07T08:37:15;98878.38;;;10.48;74.03
48792;BME280;34587;48.816;9.420;2022-12-07T08:39:40;98879.25;;;10.47;74.28
48792;BME280;34587;48.816;9.420;2022-12-07T08:42:05;98878.38;;;10.48;74.24
48792;BME280;34587;48.816;9.420;2022-12-07T08:44:30;98875.78;;;10.48;74.33
48792;BME280;34587;48.816;9.420;2022-12-07T08:46:58;98878.38;;;10.48;74.26
48792;BME280;34587;48.816;9.420;2022-12-07T08:49:31;98871.47;;;10.47;74.51
48792;BME280;34587;48.816;9.420;2022-12-07T08:51:58;98873.19;;;10.48;74.27
48792;BME280;34587;48.816;9.420;2022-12-07T08:54:23;98869.75;;;10.48;74.12
48792;BME280;34587;48.816;9.420;2022-12-07T08:56:49;98876.66;;;10.47;74.48
48792;BME280;34587;48.816;9.420;2022-12-07T08:59:17;98882.69;;;10.48;74.51
48792;BME280;34587;48.816;9.420;2022-12-07T09:01:44;98884.44;;;10.47;74.29
48792;BME280;34587;48.816;9.420;2022-12-07T09:04:09;98881.84;;;10.47;74.38
48792;BME280;34587;48.816;9.420;2022-12-07T09:06:34;98881.84;;;10.47;74.08
48792;BME280;34587;48.816;9.420;2022-12-07T09:09:01;98874.06;;;10.47;74.26
48792;BME280;34587;48.816;9.420;2022-12-07T09:11:27;98877.56;;;10.46;74.31
48792;BME280;34587;48.816;9.420;2022-12-07T09:13:52;98874.94;;;10.48;74.44
48792;BME280;34587;48.816;9.420;2022-12-07T09:16:17;98871.47;;;10.47;74.22
48792;BME280;34587;48.816;9.420;2022-12-07T09:18:43;98871.47;;;10.47;74.22
48792;BME280;34587;48.816;9.420;2022-12-07T09:21:08;98881.00;;;10.47;74.32
48792;BME280;34587;48.816;9.420;2022-12-07T09:23:34;98882.72;;;10.46;74.11
48792;BME280;34587;48.816;9.420;2022-12-07T09:26:03;98876.66;;;10.47;74.13
48792;BME280;34587;48.816;9.420;2022-12-07T09:28:33;98877.53;;;10.48;74.08
48792;BME280;34587;48.816;9.420;2022-12-07T09:30:58;98876.66;;;10.47;74.52
48792;BME280;34587;48.816;9.420;2022-12-07T09:33:24;98877.53;;;10.48;74.22
48792;BME280;34587;48.816;9.420;2022-12-07T09:35:50;98875.81;;;10.47;74.17
48792;BME280;34587;48.816;9.420;2022-12-07T09:38:16;98869.78;;;10.46;74.32
48792;BME280;34587;48.816;9.420;2022-12-07T09:40:42;98875.78;;;10.48;74.09
48792;BME280;34587;48.816;9.420;2022-12-07T09:43:13;98879.22;;;10.50;74.15
48792;BME280;34587;48.816;9.420;2022-12-07T09:45:40;98879.22;;;10.50;74.22
48792;BME280;34587;48.816;9.420;2022-12-07T09:48:16;98869.75;;;10.49;74.06
48792;BME280;34587;48.816;9.420;2022-12-07T09:50:43;98873.19;;;10.48;74.42
48792;BME280;34587;48.816;9.420;2022-12-07T09:53:14;98863.69;;;10.50;74.59
48792;BME280;34587;48.816;9.420;2022-12-07T09:55:41;98859.31;;;10.52;74.37
48792;BME280;34587;48.816;9.420;2022-12-07T09:58:17;98850.72;;;10.50;74.32
48792;BME280;34587;48.816;9.420;2022-12-07T10:00:44;98859.38;;;10.49;74.20
48792;BME280;34587;48.816;9.420;2022-12-07T10:03:11;98849.03;;;10.49;74.27
48792;BME280;34587;48.816;9.420;2022-12-07T10:05:42;98843.84;;;10.49;74.44
48792;BME280;34587;48.816;9.420;2022-12-07T10:08:13;98842.94;;;10.49;74.39
48792;BME280;34587;48.816;9.420;2022-12-07T10:10:39;98844.69;;;10.50;74.44
48792;BME280;34587;48.816;9.420;2022-12-07T10:13:13;98836.88;;;10.51;74.65
48792;BME280;34587;48.816;9.420;2022-12-07T10:15:47;98831.75;;;10.48;74.49
48792;BME280;34587;48.816;9.420;2022-12-07T10:18:30;98830.88;;;10.49;74.32
48792;BME280;34587;48.816;9.420;2022-12-07T10:23:30;98831.69;;;10.51;74.39
48792;BME280;34587;48.816;9.420;2022-12-07T10:25:55;98836.88;;;10.51;74.21
48792;BME280;34587;48.816;9.420;2022-12-07T10:28:21;98830.00;;;10.50;74.50
48792;BME280;34587;48.816;9.420;2022-12-07T10:31:01;98830.88;;;10.49;74.42
48792;BME280;34587;48.816;9.420;2022-12-07T10:35:55;98825.72;;;10.49;74.39
48792;BME280;34587;48.816;9.420;2022-12-07T10:38:21;98828.22;;;10.52;74.42
48792;BME280;34587;48.816;9.420;2022-12-07T10:40:46;98819.63;;;10.50;74.27
48792;BME280;34587;48.816;9.420;2022-12-07T10:45:58;98820.50;;;10.51;74.22
48792;BME280;34587;48.816;9.420;2022-12-07T10:51:31;98816.16;;;10.51;74.26
48792;BME280;34587;48.816;9.420;2022-12-07T10:54:22;98801.50;;;10.50;74.15
48792;BME280;34587;48.816;9.420;2022-12-07T11:08:09;98790.28;;;10.50;74.33
48792;BME280;34587;48.816;9.420;2022-12-07T11:10:54;98781.66;;;10.49;74.71
48792;BME280;34587;48.816;9.420;2022-12-07T11:16:10;98792.88;;;10.50;74.51
48792;BME280;34587;48.816;9.420;2022-12-07T11:21:25;98781.59;;;10.52;74.33
48792;BME280;34587;48.816;9.420;2022-12-07T11:29:05;98774.72;;;10.51;74.11
48792;BME280;34587;48.816;9.420;2022-12-07T11:37:21;98772.94;;;10.53;73.82
48792;BME280;34587;48.816;9.420;2022-12-07T11:39:52;98767.75;;;10.53;73.98
48792;BME280;34587;48.816;9.420;2022-12-07T11:42:29;98764.34;;;10.51;73.85
48792;BME280;34587;48.816;9.420;2022-12-07T11:45:02;98759.16;;;10.51;73.81
48792;BME280;34587;48.816;9.420;2022-12-07T11:47:43;98760.00;;;10.52;73.84
48792;BME280;34587;48.816;9.420;2022-12-07T11:50:24;98751.34;;;10.54;73.86
48792;BME280;34587;48.816;9.420;2022-12-07T11:53:12;98749.63;;;10.53;74.04
48792;BME280;34587;48.816;9.420;2022-12-07T11:55:57;98750.50;;;10.52;73.95
48792;BME280;34587;48.816;9.420;2022-12-07T12:01:26;98742.72;;;10.54;73.89
48792;BME280;34587;48.816;9.420;2022-12-07T12:03:58;98747.91;;;10.54;73.49
48792;BME280;34587;48.816;9.420;2022-12-07T12:06:26;98741.00;;;10.53;73.72
48792;BME280;34587;48.816;9.420;2022-12-07T12:20:03;98734.97;;;10.52;73.76
48792;BME280;34587;48.816;9.420;2022-12-07T12:22:42;98731.56;;;10.50;73.58
48792;BME280;34587;48.816;9.420;2022-12-07T12:25:28;98732.41;;;10.51;73.48
48792;BME280;34587;48.816;9.420;2022-12-07T12:27:58;98730.72;;;10.50;73.43
48792;BME280;34587;48.816;9.420;2022-12-07T12:30:29;98728.06;;;10.51;73.67
48792;BME280;34587;48.816;9.420;2022-12-07T12:33:02;98731.56;;;10.50;73.61
48792;BME280;34587;48.816;9.420;2022-12-07T12:35:31;98732.44;;;10.49;73.75
48792;BME280;34587;48.816;9.420;2022-12-07T12:38:27;98732.47;;;10.48;73.61
48792;BME280;34587;48.816;9.420;2022-12-07T12:40:54;98730.75;;;10.47;73.90
48792;BME280;34587;48.816;9.420;2022-12-07T12:43:52;98729.84;;;10.49;73.90
48792;BME280;34587;48.816;9.420;2022-12-07T12:49:32;98728.03;;;10.53;73.87
48792;BME280;34587;48.816;9.420;2022-12-07T12:57:32;98724.59;;;10.52;73.32
48792;BME280;34587;48.816;9.420;2022-12-07T12:59:59;98721.19;;;10.50;73.53
48792;BME280;34587;48.816;9.420;2022-12-07T13:02:46;98715.16;;;10.50;73.28
48792;BME280;34587;48.816;9.420;2022-12-07T13:15:47;98698.78;;;10.49;73.84
48792;BME280;34587;48.816;9.420;2022-12-07T13:18:35;98699.63;;;10.50;73.61
48792;BME280;34587;48.816;9.420;2022-12-07T13:26:21;98691.84;;;10.48;73.76
48792;BME280;34587;48.816;9.420;2022-12-07T13:28:50;98695.34;;;10.47;73.67
48792;BME280;34587;48.816;9.420;2022-12-07T13:31:38;98694.50;;;10.47;73.58
48792;BME280;34587;48.816;9.420;2022-12-07T13:34:26;98697.88;;;10.49;73.72
48792;BME280;34587;48.816;9.420;2022-12-07T13:36:51;98694.44;;;10.50;74.10
48792;BME280;34587;48.816;9.420;2022-12-07T13:39:19;98696.19;;;10.49;73.66
48792;BME280;34587;48.816;9.420;2022-12-07T13:41:50;98695.31;;;10.49;73.99
48792;BME280;34587;48.816;9.420;2022-12-07T13:44:16;98694.44;;;10.48;74.02
48792;BME280;34587;48.816;9.420;2022-12-07T13:46:52;98696.19;;;10.48;73.72
48792;BME280;34587;48.816;9.420;2022-12-07T13:49:24;98695.28;;;10.50;73.70
48792;BME280;34587;48.816;9.420;2022-12-07T13:51:51;98696.16;;;10.51;73.91
48792;BME280;34587;48.816;9.420;2022-12-07T13:54:17;98694.44;;;10.50;73.42
48792;BME280;34587;48.816;9.420;2022-12-07T13:56:43;98685.81;;;10.49;73.91
48792;BME280;34587;48.816;9.420;2022-12-07T13:59:17;98691.84;;;10.48;74.08
48792;BME280;34587;48.816;9.420;2022-12-07T14:01:45;98690.16;;;10.47;73.72
48792;BME280;34587;48.816;9.420;2022-12-07T14:04:17;98687.53;;;10.50;73.55
48792;BME280;34587;48.816;9.420;2022-12-07T14:06:51;98686.63;;;10.51;73.55
48792;BME280;34587;48.816;9.420;2022-12-07T14:09:20;98684.94;;;10.50;73.53
48792;BME280;34587;48.816;9.420;2022-12-07T14:11:47;98691.84;;;10.50;73.55
48792;BME280;34587;48.816;9.420;2022-12-07T14:14:18;98695.31;;;10.49;73.67
48792;BME280;34587;48.816;9.420;2022-12-07T14:22:40;98688.41;;;10.49;73.68
48792;BME280;34587;48.816;9.420;2022-12-07T14:25:17;98686.69;;;10.48;73.59
48792;BME280;34587;48.816;9.420;2022-12-07T14:27:58;98678.09;;;10.46;73.81
48792;BME280;34587;48.816;9.420;2022-12-07T14:30:27;98690.16;;;10.47;74.07
48792;BME280;34587;48.816;9.420;2022-12-07T14:32:56;98686.69;;;10.48;73.69
48792;BME280;34587;48.816;9.420;2022-12-07T14:35:22;98678.06;;;10.49;74.15
48792;BME280;34587;48.816;9.420;2022-12-07T14:37:48;98684.09;;;10.48;74.16
48792;BME280;34587;48.816;9.420;2022-12-07T14:40:22;98679.78;;;10.47;73.87
48792;BME280;34587;48.816;9.420;2022-12-07T14:42:51;98678.09;;;10.46;73.78
48792;BME280;34587;48.816;9.420;2022-12-07T14:45:21;98679.78;;;10.47;73.90
48792;BME280;34587;48.816;9.420;2022-12-07T14:47:47;98681.50;;;10.48;74.13
48792;BME280;34587;48.816;9.420;2022-12-07T14:50:14;98682.34;;;10.49;73.88
48792;BME280;34587;48.816;9.420;2022-12-07T14:52:42;98681.50;;;10.48;74.24
48792;BME280;34587;48.816;9.420;2022-12-07T14:55:20;98679.78;;;10.47;73.71
48792;BME280;34587;48.816;9.420;2022-12-07T14:57:48;98680.69;;;10.46;73.78
48792;BME280;34587;48.816;9.420;2022-12-07T15:00:15;98684.97;;;10.47;73.95
48792;BME280;34587;48.816;9.420;2022-12-07T15:02:40;98686.69;;;10.48;74.08
48792;BME280;34587;48.816;9.420;2022-12-07T15:05:06;98680.56;;;10.52;74.39
48792;BME280;34587;48.816;9.420;2022-12-07T15:07:31;98685.75;;;10.52;73.95
48792;BME280;34587;48.816;9.420;2022-12-07T15:09:56;98686.59;;;10.53;73.73
48792;BME280;34587;48.816;9.420;2022-12-07T15:12:21;98681.44;;;10.51;74.06
48792;BME280;34587;48.816;9.420;2022-12-07T15:14:48;98686.63;;;10.51;73.71
48792;BME280;34587;48.816;9.420;2022-12-07T15:17:13;98684.09;;;10.50;74.19
48792;BME280;34587;48.816;9.420;2022-12-07T15:19:39;98683.22;;;10.49;73.83
48792;BME280;34587;48.816;9.420;2022-12-07T15:22:04;98682.34;;;10.49;74.10
48792;BME280;34587;48.816;9.420;2022-12-07T15:24:29;98683.22;;;10.49;74.10
48792;BME280;34587;48.816;9.420;2022-12-07T15:26:55;98687.53;;;10.49;73.82
48792;BME280;34587;48.816;9.420;2022-12-07T15:29:20;98686.69;;;10.48;74.17
48792;BME280;34587;48.816;9.420;2022-12-07T15:31:48;98684.97;;;10.47;73.85
48792;BME280;34587;48.816;9.420;2022-12-07T15:34:13;98689.31;;;10.47;74.08
48792;BME280;34587;48.816;9.420;2022-12-07T15:36:39;98679.78;;;10.47;73.98
48792;BME280;34587;48.816;9.420;2022-12-07T15:39:04;98683.22;;;10.49;74.00
48792;BME280;34587;48.816;9.420;2022-12-07T15:41:30;98682.34;;;10.49;73.98
48792;BME280;34587;48.816;9.420;2022-12-07T15:43:55;98685.81;;;10.48;74.43
48792;BME280;34587;48.816;9.420;2022-12-07T15:46:40;98680.66;;;10.48;74.20
48792;BME280;34587;48.816;9.420;2022-12-07T15:49:10;98673.75;;;10.47;73.94
48792;BME280;34587;48.816;9.420;2022-12-07T15:51:36;98684.09;;;10.48;74.37
48792;BME280;34587;48.816;9.420;2022-12-07T15:54:01;98679.75;;;10.50;74.09
48792;BME280;34587;48.816;9.420;2022-12-07T15:56:27;98673.75;;;10.47;73.77
48792;BME280;34587;48.816;9.420;2022-12-07T15:58:52;98679.78;;;10.47;73.96
48792;BME280;34587;48.816;9.420;2022-12-07T16:01:19;98677.22;;;10.47;74.35
48792;BME280;34587;48.816;9.420;2022-12-07T16:03:45;98675.50;;;10.46;74.37
48792;BME280;34587;48.816;9.420;2022-12-07T16:06:11;98667.69;;;10.49;74.24
48792;BME280;34587;48.816;9.420;2022-12-07T16:08:37;98672.00;;;10.49;74.02
48792;BME280;34587;48.816;9.420;2022-12-07T16:11:06;98671.13;;;10.48;74.13
48792;BME280;34587;48.816;9.420;2022-12-07T16:13:32;98668.59;;;10.47;73.80
48792;BME280;34587;48.816;9.420;2022-12-07T16:15:58;98669.44;;;10.47;73.70
48792;BME280;34587;48.816;9.420;2022-12-07T16:18:26;98666.03;;;10.45;73.56
48792;BME280;34587;48.816;9.420;2022-12-07T16:20:52;98666.84;;;10.47;73.80
48792;BME280;34587;48.816;9.420;2022-12-07T16:23:17;98668.59;;;10.47;74.04
48792;BME280;34587;48.816;9.420;2022-12-07T16:25:42;98658.22;;;10.47;74.10
48792;BME280;34587;48.816;9.420;2022-12-07T16:28:07;98663.44;;;10.45;74.05
48792;BME280;34587;48.816;9.420;2022-12-07T16:30:33;98662.59;;;10.45;73.77
48792;BME280;34587;48.816;9.420;2022-12-07T16:32:59;98665.19;;;10.45;74.24
48792;BME280;34587;48.816;9.420;2022-12-07T16:35:24;98661.72;;;10.46;73.96
48792;BME280;34587;48.816;9.420;2022-12-07T16:37:49;98662.56;;;10.46;74.17
48792;BME280;34587;48.816;9.420;2022-12-07T16:40:15;98647.91;;;10.45;73.89
48792;BME280;34587;48.816;9.420;2022-12-07T16:42:40;98652.19;;;10.46;73.79
48792;BME280;34587;48.816;9.420;2022-12-07T16:45:05;98651.38;;;10.44;74.02
48792;BME280;34587;48.816;9.420;2022-12-07T16:47:31;98641.03;;;10.44;73.99
48792;BME280;34587;48.816;9.420;2022-12-07T16:49:56;98634.94;;;10.45;73.99
48792;BME280;34587;48.816;9.420;2022-12-07T16:52:21;98628.88;;;10.46;73.88
48792;BME280;34587;48.816;9.420;2022-12-07T16:54:48;98629.78;;;10.45;74.06
48792;BME280;34587;48.816;9.420;2022-12-07T16:57:14;98631.50;;;10.45;73.88
48792;BME280;34587;48.816;9.420;2022-12-07T16:59:39;98624.59;;;10.45;73.60
48792;BME280;34587;48.816;9.420;2022-12-07T17:02:05;98632.38;;;10.45;73.79
48792;BME280;34587;48.816;9.420;2022-12-07T17:04:32;98631.47;;;10.46;74.11
48792;BME280;34587;48.816;9.420;2022-12-07T17:06:58;98628.84;;;10.48;73.82
48792;BME280;34587;48.816;9.420;2022-12-07T17:09:24;98623.56;;;10.54;73.87
48792;BME280;34587;48.816;9.420;2022-12-07T17:11:49;98620.84;;;10.59;72.83
48792;BME280;34587;48.816;9.420;2022-12-07T17:14:14;98619.09;;;10.61;73.23
48792;BME280;34587;48.816;9.420;2022-12-07T17:16:58;98619.09;;;10.61;73.34
48792;BME280;34587;48.816;9.420;2022-12-07T17:19:23;98618.16;;;10.65;73.17
48792;BME280;34587;48.816;9.420;2022-12-07T17:21:49;98613.59;;;10.76;72.14
48792;BME280;34587;48.816;9.420;2022-12-07T17:24:15;98612.59;;;10.83;71.87
48792;BME280;34587;48.816;9.420;2022-12-07T17:26:43;98603.03;;;10.85;72.07
48792;BME280;34587;48.816;9.420;2022-12-07T17:29:11;98612.59;;;10.83;72.19
48792;BME280;34587;48.816;9.420;2022-12-07T17:31:37;98606.56;;;10.81;71.91
48792;BME280;34587;48.816;9.420;2022-12-07T17:34:03;98611.81;;;10.78;72.28
48792;BME280;34587;48.816;9.420;2022-12-07T17:36:30;98608.41;;;10.76;72.92
48792;BME280;34587;48.816;9.420;2022-12-07T17:38:56;98611.88;;;10.75;72.90
48792;BME280;34587;48.816;9.420;2022-12-07T17:41:24;98608.47;;;10.73;72.84
48792;BME280;34587;48.816;9.420;2022-12-07T17:44:10;98608.47;;;10.73;72.95
48792;BME280;34587;48.816;9.420;2022-12-07T17:46:36;98603.28;;;10.73;72.90
48792;BME280;34587;48.816;9.420;2022-12-07T17:49:02;98601.56;;;10.72;73.22
48792;BME280;34587;48.816;9.420;2022-12-07T17:51:28;98596.47;;;10.69;73.21
48792;BME280;34587;48.816;9.420;2022-12-07T17:54:12;98599.06;;;10.67;73.24
48792;BME280;34587;48.816;9.420;2022-12-07T17:56:37;98598.22;;;10.67;73.30
48792;BME280;34587;48.816;9.420;2022-12-07T17:59:03;98601.72;;;10.66;73.13
48792;BME280;34587;48.816;9.420;2022-12-07T18:01:28;98604.34;;;10.64;73.38
48792;BME280;34587;48.816;9.420;2022-12-07T18:03:54;98602.63;;;10.63;73.59
48792;BME280;34587;48.816;9.420;2022-12-07T18:06:19;98606.94;;;10.63;73.82
48792;BME280;34587;48.816;9.420;2022-12-07T18:08:44;98605.25;;;10.62;73.44
48792;BME280;34587;48.816;9.420;2022-12-07T18:11:09;98607.00;;;10.61;73.72
48792;BME280;34587;48.816;9.420;2022-12-07T18:13:35;98610.47;;;10.59;73.75
48792;BME280;34587;48.816;9.420;2022-12-07T18:16:21;98608.78;;;10.58;73.63
48792;BME280;34587;48.816;9.420;2022-12-07T18:18:47;98603.59;;;10.58;73.75
48792;BME280;34587;48.816;9.420;2022-12-07T18:21:16;98613.97;;;10.58;73.85
48792;BME280;34587;48.816;9.420;2022-12-07T18:23:43;98614.84;;;10.57;73.60
48792;BME280;34587;48.816;9.420;2022-12-07T18:26:09;98614.84;;;10.57;73.92
48792;BME280;34587;48.816;9.420;2022-12-07T18:28:34;98615.75;;;10.55;73.80
48792;BME280;34587;48.816;9.420;2022-12-07T18:30:59;98611.41;;;10.56;73.42
48792;BME280;34587;48.816;9.420;2022-12-07T18:33:25;98615.75;;;10.55;73.60
48792;BME280;34587;48.816;9.420;2022-12-07T18:35:50;98610.56;;;10.55;73.67
48792;BME280;34587;48.816;9.420;2022-12-07T18:38:17;98610.56;;;10.55;73.86
48792;BME280;34587;48.816;9.420;2022-12-07T18:40:44;98603.50;;;10.64;73.44
48792;BME280;34587;48.816;9.420;2022-12-07T18:43:10;98609.44;;;10.69;73.37